Terminal Aerodrome Forecast
Issued by NWS Mt. Holly, NJ

Home | Current Version | Previous Version | Text Only | Print | Product List | Glossary On
Versions: 1 2 3 4 5 6 7 8 9 10 11 12 13 14 15 16 17 18 19 20 21 22 23 24
824
FTUS41 KPHI 271449 AAA
TAFACY
TAF AMD
KACY 271449Z 2715/2812 14007KT P6SM BKN050
     FM271530 14008KT P6SM BKN010
     FM271800 16010KT P6SM SCT035
     FM280400 20005KT P6SM BKN030 PROB30 2809/2812 3SM -SHRA BKN015=

USA.gov is the U.S. government's official web portal to all federal, state and local government web resources and services.